Používaním stránok prevádzkovaných PROFIPILOT, s.r.o. súhlasíte s používaním cookies, ktoré nám pomáhajú zabezpečiť lepšie služby.OK

Briefing

MAPA | METAR | TAF | METEO SITUÁCIA
MAPA | METAR | TAF | METEO SITUÁCIA

Predpoveď na dnes

NOC: Oblačno až zamračené, ojedinele prechodne aj zmenšená oblačnosť. Ojedinele slabé sneženie, v nížinách aj dážď alebo dážď so snehom. Ojedinele poľadovica. Najnižšia nočná teplota +2 až -2, na severe Žilinského kraja a na Spiši miestami okolo -4 st. Slabý, na juhu západného a stredného Slovenska východný vietor 3 až 8 m/s (10 až 30 km/h). DEŇ: Oblačno až zamračené, zrána ojedinele aj zmenšená oblačnosť. Postupne na viacerých miestach sneženie, v polohách do cca 300 miestami aj dážď so snehom alebo dážď. Ojedinele poľadovica. Vo východnej polovici Košického a Prešovského kraja zrážky väčšinou dažďové. Najvyššia denná teplota 1 až 6, na krajnom východe miestami okolo 8 st. Teplota na horách vo výške 1500 m okolo 0 st. Severovýchodný až východný vietor 3 až 8 m/s (10 až 30 km/h), na juhu v nárazoch miestami okolo 14 m/s (50 km/h). Na východe väčšinou slabý vietor. Na horách spočiatku prudký vietor. Predpokladané množstvo zrážok: NOC: do 1 mm / do 1 cm snehu DEŇ: do 7, v južnej polovici západného a stredného Slovenska miestami okolo 10 mm / do 5 cm snehu Tendencia tlaku vzduchu: ustálený stav

SHMÚ, OMPaV, NP 19.11.2018 20:55 SEČ

MAPA | METAR | TAF | METEO SITUÁCIA

TAF - Letisková predpoveď

19.11.2018 - 23:00 UTC (Včera)

TAF LZIB 192300Z 2000/2100 06005KT 9999 -RA SCT017 OVC030
     BECMG 2003/2005 08014KT BKN013 OVC025
     TEMPO 2005/2011 4000 RASN OVC008
     BECMG 2015/2017 SCT005 BKN020=
 TAF LZKZ 192300Z 2000/2100 01010KT 9999 BKN030
     BECMG 2012/2014 -RA SCT014 OVC030
     TEMPO 2012/2100 5000 RA OVC012=
 TAF LZTT 192300Z 2000/2100 07004KT 9999 OVC005
     PROB40 TEMPO 2000/2008 4500 -SG BR BKN002
     TEMPO 2008/2012 SCT010 BKN030
     BECMG 2011/2013 5000 -SN BKN010 OVC020
     PROB30 TEMPO 2014/2100 2000 SN OVC004=
 

19.11.2018 - 17:00 UTC (Včera)

TAF LZSL 191700Z 1918/2003 VRB02KT 9999 BKN030
     PROB40 TEMPO 1922/2003 4500 -SG BR OVC008=
 TAF LZPP 191700Z 1918/2003 01004KT 9999 OVC034
     TEMPO 1919/1923 -DZRA BKN014 OVC030=
 TAF LZZI 191700Z 1918/2003 05004KT CAVOK
     TEMPO 2001/2003 4000 BR NSC=
 
MAPA | METAR | TAF | METEO SITUÁCIA

METAR - Letisková meteo správa

Letisková meteorologická správa METAR

Meteorologické informácie z ďalších profesionálnych meteorologických staníc SHMÚ zobrazené v tvare zodpovedajúcom pravidlám kódovania správ METAR sú uvedené v položke „METSYN Informácie o správe METAR

20.11.2018 - 00:00 UTC

METAR LZIB 200000Z 08009KT 9999 FEW010 OVC014 03/01 Q1017=
 METAR LZKZ 200000Z 02012KT 9999 OVC034 02/M03 Q1020=
 METAR LZPP 200000Z AUTO 36007KT 9999 OVC031/// 02/M01 Q1018=
 METAR LZSL 200000Z 03002KT 9999 OVC027 02/M01 Q1018=
 METAR LZTT 200000Z 05004KT 7000 SCT006 BKN012 OVC030 M02/M03 Q1018=
 METAR LZZI 200000Z 14003KT 9999 BKN059 M00/M03 Q1019=
 

19.11.2018 - 23:30 UTC

METAR LZIB 192330Z 09009KT 9999 FEW010 OVC013 03/01 Q1018=
 METAR LZKZ 192330Z 02012KT 9999 OVC037 02/M03 Q1020=
 METAR LZPP 192330Z AUTO 34007KT 9999 OVC031/// 02/M02 Q1018=
 METAR LZSL 192330Z 06002KT 9999 OVC031 02/M01 Q1019=
 METAR LZTT 192330Z 02002KT 8000 SCT006 OVC030 M02/M03 Q1019=
 METAR LZZI 192330Z 36003KT 340V100 9999 BKN053 00/M03 Q1019=
 
Údaje nie sú momentálne k dispozícii
načítavam...